createdAt,value
2023-05-02T00:01:17.840Z,101344.17
2023-05-02T00:03:45.056Z,101338.04
2023-05-02T00:06:12.846Z,101341.88
2023-05-02T00:08:40.514Z,101346.23
2023-05-02T00:11:07.506Z,101350.36
2023-05-02T00:13:34.498Z,101357.98
2023-05-02T00:16:01.685Z,101363.48
2023-05-02T00:18:28.586Z,101361.04
2023-05-02T00:20:56.651Z,101365.16
2023-05-02T00:23:24.196Z,101368.63
2023-05-02T00:25:51.361Z,101370.52
2023-05-02T00:28:18.811Z,101369.89
2023-05-02T00:30:46.317Z,101370.40
2023-05-02T00:33:15.142Z,101374.52
2023-05-02T00:35:42.414Z,101376.91
2023-05-02T00:38:09.486Z,101377.40
2023-05-02T00:40:46.486Z,101373.20
2023-05-02T00:43:14.138Z,101375.52
2023-05-02T00:45:42.325Z,101376.30
2023-05-02T00:48:09.704Z,101380.56
2023-05-02T00:50:41.156Z,101382.02
2023-05-02T00:53:08.897Z,101380.86
2023-05-02T00:55:35.918Z,101380.85
2023-05-02T00:58:12.054Z,101380.17
2023-05-02T01:01:20.898Z,101381.52
2023-05-02T01:04:00.223Z,101388.98
2023-05-02T01:06:44.885Z,101388.09
2023-05-02T01:09:37.324Z,101391.04
2023-05-02T01:12:43.583Z,101397.61
2023-05-02T01:15:12.902Z,101398.45
2023-05-02T01:17:39.900Z,101400.34
2023-05-02T01:20:09.192Z,101399.30
2023-05-02T01:22:36.152Z,101395.52
2023-05-02T01:25:20.182Z,101396.41
2023-05-02T01:27:54.711Z,101397.27
2023-05-02T01:30:21.835Z,101400.42
2023-05-02T01:32:48.849Z,101399.39
2023-05-02T01:35:16.586Z,101401.29
2023-05-02T01:37:44.922Z,101405.83
2023-05-02T01:40:12.359Z,101415.20
2023-05-02T01:42:39.354Z,101416.42
2023-05-02T01:45:07.443Z,101420.23
2023-05-02T01:47:36.125Z,101416.80
2023-05-02T01:50:08.062Z,101420.98
2023-05-02T01:52:35.646Z,101417.54
2023-05-02T01:55:02.679Z,101421.69
2023-05-02T01:57:29.792Z,101420.70
2023-05-02T01:59:57.463Z,101422.98
2023-05-02T02:02:27.330Z,101424.58
2023-05-02T02:04:57.529Z,101422.00
2023-05-02T02:07:24.541Z,101421.88
2023-05-02T02:09:51.774Z,101419.33
2023-05-02T02:12:25.992Z,101420.36
2023-05-02T02:15:21.224Z,101425.22
2023-05-02T02:17:50.575Z,101429.55
2023-05-02T02:20:17.617Z,101425.26
2023-05-02T02:22:44.639Z,101425.13
2023-05-02T02:25:12.515Z,101424.13
2023-05-02T02:27:39.553Z,101424.46
2023-05-02T02:30:07.774Z,101424.98
2023-05-02T02:32:34.878Z,101426.40
2023-05-02T02:35:03.209Z,101426.10
2023-05-02T02:37:35.684Z,101425.27
2023-05-02T02:40:09.122Z,101427.02
2023-05-02T02:43:04.395Z,101433.25
2023-05-02T02:45:38.527Z,101434.45
2023-05-02T02:48:33.535Z,101435.82
2023-05-02T02:51:14.078Z,101434.23
2023-05-02T02:53:55.848Z,101439.25
2023-05-02T02:56:36.611Z,101435.33
2023-05-02T02:59:06.814Z,101439.37
2023-05-02T03:01:33.808Z,101441.27
2023-05-02T03:04:00.943Z,101442.83
2023-05-02T03:06:27.950Z,101449.52
2023-05-02T03:08:56.620Z,101449.98
2023-05-02T03:11:24.102Z,101454.09
2023-05-02T03:13:53.008Z,101457.15
2023-05-02T03:16:34.265Z,101460.06
2023-05-02T03:19:01.478Z,101459.64
2023-05-02T03:21:28.514Z,101466.33
2023-05-02T03:23:56.583Z,101467.99
2023-05-02T03:26:23.616Z,101467.42
2023-05-02T03:28:51.708Z,101469.98
2023-05-02T03:31:20.431Z,101472.73
2023-05-02T03:33:48.382Z,101473.06
2023-05-02T03:36:16.384Z,101480.13
2023-05-02T03:38:43.477Z,101480.25
2023-05-02T03:41:11.006Z,101482.43
2023-05-02T03:43:38.691Z,101482.86
2023-05-02T03:46:09.756Z,101489.14
2023-05-02T03:48:37.760Z,101489.00
2023-05-02T03:51:05.827Z,101493.48
2023-05-02T03:53:38.694Z,101496.47
2023-05-02T03:56:08.128Z,101499.65
2023-05-02T03:58:41.456Z,101498.77
2023-05-02T04:01:16.500Z,101500.90
2023-05-02T04:03:46.260Z,101500.29
2023-05-02T04:06:15.186Z,101500.64
2023-05-02T04:08:44.536Z,101499.44
2023-05-02T04:11:11.959Z,101501.09
2023-05-02T04:13:39.142Z,101497.20
2023-05-02T04:16:06.335Z,101497.66
2023-05-02T04:18:35.149Z,101495.33
2023-05-02T04:21:03.715Z,101494.48
2023-05-02T04:23:31.333Z,101490.73
2023-05-02T04:26:01.225Z,101488.64
2023-05-02T04:28:43.870Z,101491.81
2023-05-02T04:31:14.666Z,101489.23
2023-05-02T04:33:43.328Z,101489.98
2023-05-02T04:36:11.285Z,101500.76
2023-05-02T04:38:41.610Z,101504.27
2023-05-02T04:41:09.663Z,101501.98
2023-05-02T04:43:44.617Z,101503.19
2023-05-02T04:46:13.417Z,101509.80
2023-05-02T04:48:42.396Z,101507.61
2023-05-02T04:51:10.475Z,101512.34
2023-05-02T04:53:38.053Z,101513.19
2023-05-02T04:56:05.552Z,101509.36
2023-05-02T04:58:35.627Z,101511.54
2023-05-02T05:01:06.149Z,101512.36
2023-05-02T05:03:36.273Z,101506.98
2023-05-02T05:06:03.598Z,101514.08
2023-05-02T05:08:31.110Z,101514.20
2023-05-02T05:10:58.121Z,101513.44
2023-05-02T05:13:25.623Z,101517.29
2023-05-02T05:15:53.241Z,101517.74
2023-05-02T05:18:23.969Z,101522.38
2023-05-02T05:20:50.942Z,101518.98
2023-05-02T05:23:17.941Z,101522.52
2023-05-02T05:25:45.955Z,101524.27
2023-05-02T05:28:15.619Z,101524.23
2023-05-02T05:30:42.700Z,101518.82
2023-05-02T05:33:12.269Z,101516.20
2023-05-02T05:35:39.427Z,101512.56
2023-05-02T05:38:07.050Z,101525.92
2023-05-02T05:40:36.362Z,101520.10
2023-05-02T05:43:04.184Z,101526.77
2023-05-02T05:45:34.764Z,101529.98
2023-05-02T05:48:01.799Z,101525.36
2023-05-02T05:50:31.713Z,101526.48
2023-05-02T05:52:58.774Z,101527.55
2023-05-02T05:55:27.860Z,101525.90
2023-05-02T05:57:55.120Z,101523.18
2023-05-02T06:00:22.322Z,101526.21
2023-05-02T06:02:50.070Z,101525.27
2023-05-02T06:05:24.928Z,101520.46
2023-05-02T06:07:52.269Z,101519.19
2023-05-02T06:10:19.248Z,101518.30
2023-05-02T06:12:49.148Z,101519.75
2023-05-02T06:15:18.384Z,101524.95
2023-05-02T06:17:45.382Z,101521.08
2023-05-02T06:20:12.538Z,101525.23
2023-05-02T06:22:40.225Z,101528.91
2023-05-02T06:25:09.016Z,101530.81
2023-05-02T06:27:36.012Z,101532.25
2023-05-02T06:30:03.554Z,101526.77
2023-05-02T06:32:34.174Z,101531.08
2023-05-02T06:35:01.942Z,101536.39
2023-05-02T06:37:33.490Z,101532.03
2023-05-02T06:40:00.699Z,101527.84
2023-05-02T06:42:29.598Z,101531.40
2023-05-02T06:44:56.657Z,101534.30
2023-05-02T06:47:24.559Z,101533.55
2023-05-02T06:49:53.068Z,101531.40
2023-05-02T06:52:20.134Z,101534.23
2023-05-02T06:54:47.130Z,101533.73
2023-05-02T06:57:14.133Z,101534.21
2023-05-02T06:59:43.193Z,101534.27
2023-05-02T07:02:11.523Z,101534.21
2023-05-02T07:04:38.718Z,101533.73
2023-05-02T07:07:06.339Z,101532.29
2023-05-02T07:09:33.362Z,101530.98
2023-05-02T07:12:01.087Z,101533.02
2023-05-02T07:14:28.150Z,101532.10
2023-05-02T07:16:55.307Z,101526.16
2023-05-02T07:19:22.908Z,101527.61
2023-05-02T07:21:50.626Z,101524.04
2023-05-02T07:24:17.615Z,101524.14
2023-05-02T07:26:44.805Z,101524.74
2023-05-02T07:29:11.843Z,101526.63
2023-05-02T07:31:39.676Z,101529.08
2023-05-02T07:34:06.817Z,101529.13
2023-05-02T07:36:34.012Z,101526.96
2023-05-02T07:39:01.063Z,101529.46
2023-05-02T07:41:28.050Z,101528.32
2023-05-02T07:43:56.004Z,101529.70
2023-05-02T07:46:23.660Z,101532.61
2023-05-02T07:48:51.024Z,101535.69
2023-05-02T07:51:20.935Z,101537.97
2023-05-02T07:53:50.478Z,101536.21
2023-05-02T07:56:17.554Z,101534.55
2023-05-02T07:58:44.599Z,101532.73
2023-05-02T08:01:11.715Z,101530.83
2023-05-02T08:03:38.890Z,101535.18
2023-05-02T08:06:05.986Z,101535.23
2023-05-02T08:08:33.051Z,101532.19
2023-05-02T08:11:00.283Z,101535.83
2023-05-02T08:13:27.564Z,101530.65
2023-05-02T08:15:58.422Z,101529.23
2023-05-02T08:18:25.917Z,101523.34
2023-05-02T08:20:56.100Z,101524.19
2023-05-02T08:23:23.026Z,101523.28
2023-05-02T08:25:50.011Z,101520.33
2023-05-02T08:28:17.022Z,101514.84
2023-05-02T08:30:45.410Z,101511.59
2023-05-02T08:33:13.030Z,101512.30
2023-05-02T08:35:40.638Z,101513.58
2023-05-02T08:38:07.853Z,101511.02
2023-05-02T08:40:42.077Z,101506.08
2023-05-02T08:43:11.222Z,101504.59
2023-05-02T08:45:42.835Z,101503.42
2023-05-02T08:48:11.835Z,101502.95
2023-05-02T08:50:48.358Z,101498.10
2023-05-02T08:53:15.693Z,101500.08
2023-05-02T08:55:43.163Z,101498.59
2023-05-02T08:58:12.798Z,101495.25
2023-05-02T09:00:42.208Z,101496.69
2023-05-02T09:03:25.079Z,101490.84
2023-05-02T09:05:53.875Z,101492.41
2023-05-02T09:08:22.929Z,101485.22
2023-05-02T09:10:51.460Z,101483.64
2023-05-02T09:13:38.585Z,101480.23
2023-05-02T09:16:07.329Z,101478.02
2023-05-02T09:18:41.921Z,101474.35
2023-05-02T09:21:10.773Z,101473.80
2023-05-02T09:23:40.796Z,101468.98
2023-05-02T09:26:31.576Z,101467.04
2023-05-02T09:29:05.520Z,101462.64
2023-05-02T09:34:13.696Z,101452.30
2023-05-02T09:36:42.451Z,101450.77
2023-05-02T09:39:17.572Z,101447.52
2023-05-02T09:41:45.651Z,101442.50
2023-05-02T09:44:20.419Z,101440.00
2023-05-02T09:46:49.064Z,101434.02
2023-05-02T09:49:19.100Z,101438.55
2023-05-02T09:51:47.440Z,101433.17
2023-05-02T09:54:16.178Z,101438.09
2023-05-02T09:56:59.036Z,101435.52
2023-05-02T09:59:26.027Z,101435.80
2023-05-02T10:02:03.609Z,101431.45
2023-05-02T10:04:32.206Z,101432.06
2023-05-02T10:06:59.661Z,101431.83
2023-05-02T10:09:27.583Z,101433.20
2023-05-02T10:11:55.347Z,101428.21
2023-05-02T10:14:23.938Z,101428.95
2023-05-02T10:16:55.978Z,101426.02
2023-05-02T10:20:12.374Z,101429.59
2023-05-02T10:22:39.386Z,101435.27
2023-05-02T10:25:06.673Z,101430.06
2023-05-02T10:27:33.817Z,101430.64
2023-05-02T10:30:01.525Z,101420.04
2023-05-02T10:32:32.504Z,101416.55
2023-05-02T10:35:05.539Z,101420.48
2023-05-02T10:37:36.947Z,101420.79
2023-05-02T10:40:04.316Z,101413.03
2023-05-02T10:42:31.367Z,101406.95
2023-05-02T10:44:59.174Z,101413.86
2023-05-02T10:47:27.183Z,101414.72
2023-05-02T10:49:58.137Z,101414.21
2023-05-02T10:52:36.083Z,101413.56
2023-05-02T10:55:22.384Z,101415.67
2023-05-02T10:58:01.572Z,101410.33
2023-05-02T11:00:33.805Z,101411.33
2023-05-02T11:03:01.594Z,101404.96
2023-05-02T11:05:28.888Z,101402.44
2023-05-02T11:08:20.158Z,101402.44
2023-05-02T11:10:48.148Z,101393.65
2023-05-02T11:13:15.744Z,101401.66
2023-05-02T11:15:42.650Z,101395.09
2023-05-02T11:18:12.133Z,101390.34
2023-05-02T11:20:40.165Z,101393.09
2023-05-02T11:23:22.264Z,101396.44
2023-05-02T11:25:50.485Z,101387.10
2023-05-02T11:28:39.763Z,101389.85
2023-05-02T11:31:10.996Z,101388.49
2023-05-02T11:33:38.112Z,101381.52
2023-05-02T11:36:05.396Z,101383.85
2023-05-02T11:38:37.257Z,101377.98
2023-05-02T11:41:04.608Z,101378.89
2023-05-02T11:43:32.604Z,101374.52
2023-05-02T11:46:02.005Z,101373.73
2023-05-02T11:48:29.594Z,101371.57
2023-05-02T11:50:58.394Z,101372.81
2023-05-02T11:53:26.924Z,101371.94
2023-05-02T11:55:56.268Z,101371.59
2023-05-02T11:58:30.081Z,101371.71
2023-05-02T12:00:57.403Z,101373.19
2023-05-02T12:03:32.321Z,101364.32
2023-05-02T12:06:12.658Z,101354.98
2023-05-02T12:08:40.876Z,101353.67
2023-05-02T12:11:08.082Z,101341.98
2023-05-02T12:13:35.156Z,101344.73
2023-05-02T12:16:02.340Z,101346.95
2023-05-02T12:18:29.525Z,101345.16
2023-05-02T12:20:56.746Z,101349.17
2023-05-02T12:23:24.858Z,101344.80
2023-05-02T12:25:51.900Z,101343.42
2023-05-02T12:28:20.004Z,101340.99
2023-05-02T12:30:51.308Z,101342.27
2023-05-02T12:33:18.716Z,101339.19
2023-05-02T12:35:47.529Z,101338.30
2023-05-02T12:38:16.129Z,101334.89
2023-05-02T12:41:01.579Z,101327.92
2023-05-02T12:43:28.555Z,101329.27
2023-05-02T12:46:11.898Z,101328.08
2023-05-02T12:48:38.957Z,101323.34
2023-05-02T12:51:06.099Z,101323.08
2023-05-02T12:53:44.034Z,101324.38
2023-05-02T12:56:11.473Z,101325.73
2023-05-02T12:58:43.228Z,101326.08
2023-05-02T13:01:10.786Z,101326.67
2023-05-02T13:03:38.026Z,101328.42
2023-05-02T13:06:05.408Z,101322.23
2023-05-02T13:08:33.806Z,101319.71
2023-05-02T13:11:02.961Z,101313.15
2023-05-02T13:13:30.485Z,101307.64
2023-05-02T13:15:58.622Z,101298.50
2023-05-02T13:18:26.079Z,101293.79
2023-05-02T13:20:53.186Z,101296.60
2023-05-02T13:23:20.352Z,101293.29
2023-05-02T13:25:47.355Z,101297.40
2023-05-02T13:28:14.434Z,101298.95
2023-05-02T13:30:41.626Z,101289.58
2023-05-02T13:33:09.268Z,101292.55
2023-05-02T13:35:36.598Z,101299.13
2023-05-02T13:38:03.920Z,101294.95
2023-05-02T13:40:31.070Z,101295.48
2023-05-02T13:42:58.258Z,101292.08
2023-05-02T13:45:25.292Z,101289.52
2023-05-02T13:47:52.348Z,101285.19
2023-05-02T13:50:19.988Z,101284.66
2023-05-02T13:52:49.075Z,101283.83
2023-05-02T13:55:16.627Z,101279.93
2023-05-02T13:57:43.718Z,101280.84
2023-05-02T14:00:11.598Z,101281.30
2023-05-02T14:02:39.395Z,101280.23
2023-05-02T14:05:07.410Z,101279.25
2023-05-02T14:07:34.883Z,101280.55
2023-05-02T14:10:02.796Z,101278.64
2023-05-02T14:12:30.701Z,101270.24
2023-05-02T14:14:57.746Z,101266.80
2023-05-02T14:17:26.105Z,101262.14
2023-05-02T14:19:53.095Z,101260.71
2023-05-02T14:22:20.134Z,101262.02
2023-05-02T14:24:47.821Z,101257.52
2023-05-02T14:27:18.430Z,101258.52
2023-05-02T14:29:46.185Z,101259.19
2023-05-02T14:32:13.694Z,101261.19
2023-05-02T14:34:42.059Z,101256.70
2023-05-02T14:37:09.375Z,101258.32
2023-05-02T14:39:40.300Z,101252.92
2023-05-02T14:42:07.978Z,101247.52
2023-05-02T14:44:36.711Z,101242.44
2023-05-02T14:47:03.827Z,101243.92
2023-05-02T14:49:31.635Z,101236.02
2023-05-02T14:51:59.174Z,101236.91
2023-05-02T14:54:28.843Z,101235.76
2023-05-02T14:56:56.082Z,101231.14
2023-05-02T14:59:25.398Z,101229.93
2023-05-02T15:01:53.287Z,101230.17
2023-05-02T15:04:20.723Z,101224.44
2023-05-02T15:06:48.334Z,101226.80
2023-05-02T15:09:16.372Z,101224.92
2023-05-02T15:11:44.905Z,101228.86
2023-05-02T15:14:11.978Z,101224.99
2023-05-02T15:16:39.838Z,101218.88
2023-05-02T15:19:06.936Z,101218.00
2023-05-02T15:21:35.276Z,101215.27
2023-05-02T15:24:02.746Z,101213.66
2023-05-02T15:26:30.520Z,101214.41
2023-05-02T15:29:00.265Z,101211.12
2023-05-02T15:31:28.145Z,101210.40
2023-05-02T15:33:55.373Z,101207.33
2023-05-02T15:36:23.299Z,101209.38
2023-05-02T15:38:50.775Z,101208.52
2023-05-02T15:41:18.262Z,101208.34
2023-05-02T15:43:45.335Z,101207.05
2023-05-02T15:46:12.740Z,101205.00
2023-05-02T15:48:40.160Z,101206.83
2023-05-02T15:51:09.245Z,101207.86
2023-05-02T15:53:39.762Z,101204.61
2023-05-02T15:56:09.550Z,101204.48
2023-05-02T15:58:36.636Z,101201.44
2023-05-02T16:01:04.924Z,101203.42
2023-05-02T16:03:32.781Z,101205.99
2023-05-02T16:06:00.250Z,101203.11
2023-05-02T16:08:27.938Z,101199.98
2023-05-02T16:10:55.952Z,101199.98
2023-05-02T16:13:23.236Z,101196.14
2023-05-02T16:15:52.852Z,101194.92
2023-05-02T16:18:20.205Z,101196.60
2023-05-02T16:20:47.925Z,101196.30
2023-05-02T16:23:15.075Z,101197.68
2023-05-02T16:25:42.038Z,101197.48
2023-05-02T16:28:09.064Z,101196.02
2023-05-02T16:30:37.242Z,101192.54
2023-05-02T16:33:04.360Z,101196.92
2023-05-02T16:35:31.973Z,101192.98
2023-05-02T16:37:58.898Z,101189.11
2023-05-02T16:40:27.469Z,101186.35
2023-05-02T16:42:55.901Z,101185.20
2023-05-02T16:45:23.356Z,101181.03
2023-05-02T16:47:50.551Z,101177.61
2023-05-02T16:50:18.987Z,101175.23
2023-05-02T16:52:45.986Z,101173.57
2023-05-02T16:55:12.956Z,101171.77
2023-05-02T16:57:39.901Z,101172.38
2023-05-02T17:00:10.539Z,101169.84
2023-05-02T17:02:37.631Z,101171.52
2023-05-02T17:05:05.591Z,101172.83
2023-05-02T17:07:32.631Z,101174.20
2023-05-02T17:09:59.790Z,101172.71
2023-05-02T17:12:27.349Z,101170.36
2023-05-02T17:14:54.546Z,101168.87
2023-05-02T17:17:23.630Z,101172.20
2023-05-02T17:19:51.427Z,101171.92
2023-05-02T17:22:19.160Z,101171.56
2023-05-02T17:24:48.637Z,101175.27
2023-05-02T17:27:16.640Z,101176.96
2023-05-02T17:29:46.983Z,101181.56
2023-05-02T17:32:15.932Z,101184.27
2023-05-02T17:34:46.032Z,101185.80
2023-05-02T17:37:13.170Z,101186.28
2023-05-02T17:39:40.149Z,101184.42
2023-05-02T17:42:07.327Z,101186.46
2023-05-02T17:44:37.185Z,101185.39
2023-05-02T17:47:04.608Z,101182.60
2023-05-02T17:49:32.265Z,101188.98
2023-05-02T17:51:59.299Z,101196.95
2023-05-02T17:54:26.354Z,101196.86
2023-05-02T17:56:53.477Z,101201.98
2023-05-02T17:59:20.750Z,101202.02
2023-05-02T18:01:47.768Z,101202.86
2023-05-02T18:04:15.656Z,101207.20
2023-05-02T18:06:42.741Z,101205.18
2023-05-02T18:09:09.901Z,101208.13
2023-05-02T18:11:40.273Z,101209.27
2023-05-02T18:14:07.524Z,101214.20
2023-05-02T18:16:36.489Z,101216.11
2023-05-02T18:19:04.604Z,101217.10
2023-05-02T18:21:34.857Z,101214.56
2023-05-02T18:24:02.098Z,101216.83
2023-05-02T18:26:29.071Z,101215.16
2023-05-02T18:28:56.075Z,101212.84
2023-05-02T18:31:23.933Z,101213.48
2023-05-02T18:33:51.698Z,101214.17
2023-05-02T18:36:27.384Z,101214.05
2023-05-02T18:38:56.411Z,101215.39
2023-05-02T18:41:23.624Z,101215.11
2023-05-02T18:43:50.622Z,101215.51
2023-05-02T18:46:17.760Z,101216.03
2023-05-02T18:48:44.821Z,101215.98
2023-05-02T18:51:12.332Z,101218.56
2023-05-02T18:53:39.330Z,101217.55
2023-05-02T18:56:13.189Z,101217.81
2023-05-02T18:58:41.158Z,101211.24
2023-05-02T19:01:15.332Z,101213.14
2023-05-02T19:03:49.176Z,101218.30
2023-05-02T19:06:19.878Z,101223.42
2023-05-02T19:08:47.969Z,101223.45
2023-05-02T19:11:17.660Z,101225.41
2023-05-02T19:13:45.873Z,101220.10
2023-05-02T19:16:13.832Z,101222.17
2023-05-02T19:18:44.209Z,101222.84
2023-05-02T19:21:12.937Z,101221.79
2023-05-02T19:23:43.483Z,101225.22
2023-05-02T19:26:16.357Z,101224.05
2023-05-02T19:31:28.749Z,101220.97
2023-05-02T19:33:58.232Z,101225.06
2023-05-02T19:36:27.937Z,101222.50
2023-05-02T19:38:55.088Z,101223.49
2023-05-02T19:41:22.968Z,101218.66
2023-05-02T19:43:55.991Z,101220.73
2023-05-02T19:46:23.970Z,101223.72
2023-05-02T19:48:52.526Z,101224.55
2023-05-02T19:51:25.646Z,101225.36
2023-05-02T19:53:53.971Z,101221.44
2023-05-02T19:56:21.811Z,101221.17
2023-05-02T19:58:48.775Z,101222.55
2023-05-02T20:01:16.100Z,101225.19
2023-05-02T20:03:43.395Z,101226.16
2023-05-02T20:06:10.591Z,101230.25
2023-05-02T20:08:37.596Z,101233.54
2023-05-02T20:11:05.313Z,101230.48
2023-05-02T20:13:32.251Z,101231.84
2023-05-02T20:15:59.297Z,101229.66
2023-05-02T20:18:26.283Z,101227.52
2023-05-02T20:20:53.274Z,101226.81
2023-05-02T20:23:20.228Z,101228.96
2023-05-02T20:25:47.262Z,101229.49
2023-05-02T20:28:14.237Z,101231.45
2023-05-02T20:30:42.104Z,101230.44
2023-05-02T20:33:15.467Z,101226.73
2023-05-02T20:35:44.026Z,101227.86
2023-05-02T20:38:11.268Z,101231.72
2023-05-02T20:40:39.907Z,101228.64
2023-05-02T20:43:07.554Z,101227.59
2023-05-02T20:45:34.822Z,101230.66
2023-05-02T20:48:01.904Z,101230.59
2023-05-02T20:50:28.985Z,101232.47
2023-05-02T20:52:56.687Z,101230.93
2023-05-02T20:55:24.488Z,101230.92
2023-05-02T20:57:53.484Z,101234.11
2023-05-02T21:00:23.629Z,101233.65
2023-05-02T21:02:50.868Z,101232.08
2023-05-02T21:05:18.218Z,101236.30
2023-05-02T21:07:45.231Z,101242.26
2023-05-02T21:10:12.307Z,101244.55
2023-05-02T21:12:39.522Z,101244.67
2023-05-02T21:15:07.720Z,101246.37
2023-05-02T21:17:34.846Z,101249.48
2023-05-02T21:20:02.068Z,101249.56
2023-05-02T21:22:29.449Z,101253.71
2023-05-02T21:24:56.560Z,101254.78
2023-05-02T21:27:23.691Z,101254.88
2023-05-02T21:29:50.930Z,101259.27
2023-05-02T21:32:17.956Z,101252.98
2023-05-02T21:34:44.933Z,101259.14
2023-05-02T21:37:11.912Z,101260.91
2023-05-02T21:39:39.040Z,101261.61
2023-05-02T21:42:06.280Z,101262.77
2023-05-02T21:44:33.254Z,101262.92
2023-05-02T21:47:00.378Z,101260.74
2023-05-02T21:49:29.545Z,101258.15
2023-05-02T21:51:58.393Z,101257.39
2023-05-02T21:54:25.601Z,101259.48
2023-05-02T21:56:55.661Z,101255.98
2023-05-02T21:59:22.608Z,101249.44
2023-05-02T22:01:49.634Z,101248.63
2023-05-02T22:04:17.625Z,101243.90
2023-05-02T22:06:51.829Z,101244.98
2023-05-02T22:09:20.882Z,101246.59
2023-05-02T22:11:47.933Z,101249.95
2023-05-02T22:14:14.977Z,101243.52
2023-05-02T22:16:41.998Z,101247.71
2023-05-02T22:19:17.760Z,101247.98
2023-05-02T22:21:44.764Z,101247.68
2023-05-02T22:24:11.730Z,101246.37
2023-05-02T22:26:38.689Z,101248.14
2023-05-02T22:29:05.636Z,101246.60
2023-05-02T22:31:32.608Z,101250.36
2023-05-02T22:33:59.578Z,101244.98
2023-05-02T22:36:27.925Z,101246.49
2023-05-02T22:38:55.219Z,101247.98
2023-05-02T22:41:22.174Z,101249.58
2023-05-02T22:43:49.137Z,101249.98
2023-05-02T22:46:16.250Z,101244.85
2023-05-02T22:48:43.228Z,101241.18
2023-05-02T22:51:10.221Z,101240.48
2023-05-02T22:53:37.146Z,101234.52
2023-05-02T22:56:04.535Z,101236.63
2023-05-02T22:58:31.615Z,101240.30
2023-05-02T23:00:58.583Z,101242.89
2023-05-02T23:03:25.604Z,101245.54
2023-05-02T23:05:52.617Z,101248.55
2023-05-02T23:08:20.057Z,101249.90
2023-05-02T23:10:47.145Z,101254.25
2023-05-02T23:13:14.104Z,101260.88
2023-05-02T23:15:41.717Z,101265.91
2023-05-02T23:18:08.794Z,101265.20
2023-05-02T23:20:35.873Z,101270.63
2023-05-02T23:23:03.344Z,101263.84
2023-05-02T23:25:30.303Z,101265.85
2023-05-02T23:27:57.301Z,101263.80
2023-05-02T23:30:24.225Z,101264.44
2023-05-02T23:32:51.823Z,101265.71
2023-05-02T23:35:18.923Z,101263.19
2023-05-02T23:37:45.930Z,101262.91
2023-05-02T23:40:13.621Z,101261.55
2023-05-02T23:42:41.050Z,101263.96
2023-05-02T23:45:09.151Z,101264.23
2023-05-02T23:47:36.608Z,101268.53
2023-05-02T23:50:07.422Z,101267.45
2023-05-02T23:52:34.355Z,101263.17
2023-05-02T23:55:01.386Z,101266.83
2023-05-02T23:57:31.372Z,101267.04
2023-05-02T23:59:58.319Z,101266.65
